KIKK

Greater Kankakee Airport

Kankakee, Illinois, USA
METAR KIKK 201555Z AUTO 14007KT 7SM -RA SCT007 BKN018 OVC035 21/21 A2987 RMK AO2 LTG DSNT S P0039 T02100206
Observed Flight Rules
Aug-20 @ 15:55 UTC (28 minutes ago) Marginal Visual Flight Rules
Wind Visibility Clouds Conditions
140° at 7 knots 7 miles
  • Scattered at 700' AGL
  • Broken at 1,800' AGL
  • Overcast at 3,500' AGL
  • Light Rain
Temperatures Readings Precipitation
Current 21°C / 70°F
Dewpoint 21°C / 70°F
Humidity 100%
Altimeter 29.87" Hg
Pressure 1012 hPa
Elevation 192
Current Rain 0.39
METAR KIKK 201555Z AUTO 14007KT 7SM -RA SCT007 BKN018 OVC035 21/21 A2987 RMK AO2 LTG DSNT S P0039 T02100206
Observed Flight Rules
Aug-20 @ 15:55 UTC
(28 minutes ago)
MVFR
Wind Visibility
140° at 7 knots 7 miles
Clouds
  • Scattered at 700' AGL
  • Broken at 1,800' AGL
  • Overcast at 3,500' AGL
Conditions
  • Light Rain
Temperature Dewpoint
21°C / 70°F 21°C / 70°F
Humidity Altimeter Pressure
100% 29.87" Hg 1012 hPa
Current Rain
0.39